sensor_id;sensor_type;location;lat;lon;timestamp;temperature;humidity
12111;DHT22;6119;52.372;8.990;2022-07-23T00:00:16;16.70;99.90
12111;DHT22;6119;52.372;8.990;2022-07-23T00:03:04;16.60;99.90
12111;DHT22;6119;52.372;8.990;2022-07-23T00:05:51;16.60;99.90
12111;DHT22;6119;52.372;8.990;2022-07-23T00:08:37;16.50;99.90
12111;DHT22;6119;52.372;8.990;2022-07-23T00:11:24;16.50;99.90
12111;DHT22;6119;52.372;8.990;2022-07-23T00:14:10;16.40;99.90
12111;DHT22;6119;52.372;8.990;2022-07-23T00:16:57;16.50;99.90
12111;DHT22;6119;52.372;8.990;2022-07-23T00:19:45;16.50;99.90
12111;DHT22;6119;52.372;8.990;2022-07-23T00:22:32;16.40;99.90
12111;DHT22;6119;52.372;8.990;2022-07-23T00:25:18;16.40;99.90
12111;DHT22;6119;52.372;8.990;2022-07-23T00:28:14;16.50;99.90
12111;DHT22;6119;52.372;8.990;2022-07-23T00:31:00;16.40;99.90
12111;DHT22;6119;52.372;8.990;2022-07-23T00:33:47;16.30;99.90
12111;DHT22;6119;52.372;8.990;2022-07-23T00:36:35;16.40;99.90
12111;DHT22;6119;52.372;8.990;2022-07-23T00:39:22;16.30;99.90
12111;DHT22;6119;52.372;8.990;2022-07-23T00:42:09;16.30;99.90
12111;DHT22;6119;52.372;8.990;2022-07-23T00:44:55;16.30;99.90
12111;DHT22;6119;52.372;8.990;2022-07-23T00:47:41;16.30;99.90
12111;DHT22;6119;52.372;8.990;2022-07-23T00:50:28;16.30;99.90
12111;DHT22;6119;52.372;8.990;2022-07-23T00:53:16;16.20;99.90
12111;DHT22;6119;52.372;8.990;2022-07-23T00:56:03;16.40;99.90
12111;DHT22;6119;52.372;8.990;2022-07-23T00:58:50;16.40;99.90
12111;DHT22;6119;52.372;8.990;2022-07-23T01:01:37;16.40;99.90
12111;DHT22;6119;52.372;8.990;2022-07-23T01:04:24;16.30;99.90
12111;DHT22;6119;52.372;8.990;2022-07-23T01:07:11;16.30;99.90
12111;DHT22;6119;52.372;8.990;2022-07-23T01:10:00;16.40;99.90
12111;DHT22;6119;52.372;8.990;2022-07-23T01:12:48;16.40;99.90
12111;DHT22;6119;52.372;8.990;2022-07-23T01:15:35;16.40;99.90
12111;DHT22;6119;52.372;8.990;2022-07-23T01:18:22;16.40;99.90
12111;DHT22;6119;52.372;8.990;2022-07-23T01:21:11;16.40;99.90
12111;DHT22;6119;52.372;8.990;2022-07-23T01:24:00;16.40;99.90
12111;DHT22;6119;52.372;8.990;2022-07-23T01:26:48;16.40;99.90
12111;DHT22;6119;52.372;8.990;2022-07-23T01:29:35;16.40;99.90
12111;DHT22;6119;52.372;8.990;2022-07-23T01:32:22;16.40;99.90
12111;DHT22;6119;52.372;8.990;2022-07-23T01:35:09;16.30;99.90
12111;DHT22;6119;52.372;8.990;2022-07-23T01:37:56;16.30;99.90
12111;DHT22;6119;52.372;8.990;2022-07-23T01:40:43;16.40;99.90
12111;DHT22;6119;52.372;8.990;2022-07-23T01:43:31;16.40;99.90
12111;DHT22;6119;52.372;8.990;2022-07-23T01:46:18;16.40;99.90
12111;DHT22;6119;52.372;8.990;2022-07-23T01:49:05;16.40;99.90
12111;DHT22;6119;52.372;8.990;2022-07-23T01:51:51;16.40;99.90
12111;DHT22;6119;52.372;8.990;2022-07-23T01:54:46;16.40;99.90
12111;DHT22;6119;52.372;8.990;2022-07-23T01:57:34;16.40;99.90
12111;DHT22;6119;52.372;8.990;2022-07-23T02:00:21;16.40;99.90
12111;DHT22;6119;52.372;8.990;2022-07-23T02:03:07;16.50;99.90
12111;DHT22;6119;52.372;8.990;2022-07-23T02:05:55;16.40;99.90
12111;DHT22;6119;52.372;8.990;2022-07-23T02:08:41;16.40;99.90
12111;DHT22;6119;52.372;8.990;2022-07-23T02:11:28;16.50;99.90
12111;DHT22;6119;52.372;8.990;2022-07-23T02:14:16;16.50;99.90
12111;DHT22;6119;52.372;8.990;2022-07-23T02:17:02;16.50;99.90
12111;DHT22;6119;52.372;8.990;2022-07-23T02:19:49;16.50;99.90
12111;DHT22;6119;52.372;8.990;2022-07-23T02:22:35;16.50;99.90
12111;DHT22;6119;52.372;8.990;2022-07-23T02:25:22;16.60;99.90
12111;DHT22;6119;52.372;8.990;2022-07-23T02:28:08;16.60;99.90
12111;DHT22;6119;52.372;8.990;2022-07-23T02:30:56;16.50;99.90
12111;DHT22;6119;52.372;8.990;2022-07-23T02:33:43;16.40;99.90
12111;DHT22;6119;52.372;8.990;2022-07-23T02:36:29;16.40;99.90
12111;DHT22;6119;52.372;8.990;2022-07-23T02:39:16;16.50;99.90
12111;DHT22;6119;52.372;8.990;2022-07-23T02:42:02;16.50;99.90
12111;DHT22;6119;52.372;8.990;2022-07-23T02:44:49;16.50;99.90
12111;DHT22;6119;52.372;8.990;2022-07-23T02:47:37;16.60;99.90
12111;DHT22;6119;52.372;8.990;2022-07-23T02:50:24;16.50;99.90
12111;DHT22;6119;52.372;8.990;2022-07-23T02:53:10;16.50;99.90
12111;DHT22;6119;52.372;8.990;2022-07-23T02:55:57;16.50;99.90
12111;DHT22;6119;52.372;8.990;2022-07-23T02:58:43;16.40;99.90
12111;DHT22;6119;52.372;8.990;2022-07-23T03:01:30;16.40;99.90
12111;DHT22;6119;52.372;8.990;2022-07-23T03:04:18;16.40;99.90
12111;DHT22;6119;52.372;8.990;2022-07-23T03:07:04;16.30;99.90
12111;DHT22;6119;52.372;8.990;2022-07-23T03:09:50;16.30;99.90
12111;DHT22;6119;52.372;8.990;2022-07-23T03:12:37;16.30;99.90
12111;DHT22;6119;52.372;8.990;2022-07-23T03:15:23;16.10;99.90
12111;DHT22;6119;52.372;8.990;2022-07-23T03:18:10;15.90;99.90
12111;DHT22;6119;52.372;8.990;2022-07-23T03:20:58;16.10;99.90
12111;DHT22;6119;52.372;8.990;2022-07-23T03:23:44;16.10;99.90
12111;DHT22;6119;52.372;8.990;2022-07-23T03:26:31;16.20;99.90
12111;DHT22;6119;52.372;8.990;2022-07-23T03:29:17;15.90;99.90
12111;DHT22;6119;52.372;8.990;2022-07-23T03:32:04;15.90;99.90
12111;DHT22;6119;52.372;8.990;2022-07-23T03:34:51;16.00;99.90
12111;DHT22;6119;52.372;8.990;2022-07-23T03:37:39;16.20;99.90
12111;DHT22;6119;52.372;8.990;2022-07-23T03:40:26;16.10;99.90
12111;DHT22;6119;52.372;8.990;2022-07-23T03:43:12;16.00;99.90
12111;DHT22;6119;52.372;8.990;2022-07-23T03:45:58;16.00;99.90
12111;DHT22;6119;52.372;8.990;2022-07-23T03:48:45;16.00;99.90
12111;DHT22;6119;52.372;8.990;2022-07-23T03:51:32;16.10;99.90
12111;DHT22;6119;52.372;8.990;2022-07-23T03:54:20;16.00;99.90
12111;DHT22;6119;52.372;8.990;2022-07-23T03:57:06;16.20;99.90
12111;DHT22;6119;52.372;8.990;2022-07-23T03:59:53;16.00;99.90
12111;DHT22;6119;52.372;8.990;2022-07-23T04:02:40;16.10;99.90
12111;DHT22;6119;52.372;8.990;2022-07-23T04:05:26;16.10;99.90
12111;DHT22;6119;52.372;8.990;2022-07-23T04:08:13;16.10;99.90
12111;DHT22;6119;52.372;8.990;2022-07-23T04:11:01;16.10;99.90
12111;DHT22;6119;52.372;8.990;2022-07-23T04:13:47;16.10;99.90
12111;DHT22;6119;52.372;8.990;2022-07-23T04:16:33;16.10;99.90
12111;DHT22;6119;52.372;8.990;2022-07-23T04:19:20;16.00;99.90
12111;DHT22;6119;52.372;8.990;2022-07-23T04:22:07;16.10;99.90
12111;DHT22;6119;52.372;8.990;2022-07-23T04:24:54;16.10;99.90
12111;DHT22;6119;52.372;8.990;2022-07-23T04:27:41;16.00;99.90
12111;DHT22;6119;52.372;8.990;2022-07-23T04:30:28;16.10;99.90
12111;DHT22;6119;52.372;8.990;2022-07-23T04:33:15;16.10;99.90
12111;DHT22;6119;52.372;8.990;2022-07-23T04:36:01;15.90;99.90
12111;DHT22;6119;52.372;8.990;2022-07-23T04:38:48;16.00;99.90
12111;DHT22;6119;52.372;8.990;2022-07-23T04:41:37;16.00;99.90
12111;DHT22;6119;52.372;8.990;2022-07-23T04:44:24;16.10;99.90
12111;DHT22;6119;52.372;8.990;2022-07-23T04:47:11;16.10;99.90
12111;DHT22;6119;52.372;8.990;2022-07-23T04:49:57;16.10;99.90
12111;DHT22;6119;52.372;8.990;2022-07-23T04:52:44;16.10;99.90
12111;DHT22;6119;52.372;8.990;2022-07-23T04:55:31;16.10;99.90
12111;DHT22;6119;52.372;8.990;2022-07-23T04:58:17;16.10;99.90
12111;DHT22;6119;52.372;8.990;2022-07-23T05:01:05;16.10;99.90
12111;DHT22;6119;52.372;8.990;2022-07-23T05:03:51;16.20;99.90
12111;DHT22;6119;52.372;8.990;2022-07-23T05:06:37;16.10;99.90
12111;DHT22;6119;52.372;8.990;2022-07-23T05:09:24;16.20;99.90
12111;DHT22;6119;52.372;8.990;2022-07-23T05:12:11;16.30;99.90
12111;DHT22;6119;52.372;8.990;2022-07-23T05:14:57;16.30;99.90
12111;DHT22;6119;52.372;8.990;2022-07-23T05:17:45;16.40;99.90
12111;DHT22;6119;52.372;8.990;2022-07-23T05:20:31;16.40;99.90
12111;DHT22;6119;52.372;8.990;2022-07-23T05:23:17;16.40;99.90
12111;DHT22;6119;52.372;8.990;2022-07-23T05:26:04;16.40;99.90
12111;DHT22;6119;52.372;8.990;2022-07-23T05:28:50;16.40;99.90
12111;DHT22;6119;52.372;8.990;2022-07-23T05:31:37;16.40;99.90
12111;DHT22;6119;52.372;8.990;2022-07-23T05:34:25;16.50;99.90
12111;DHT22;6119;52.372;8.990;2022-07-23T05:37:11;16.30;99.90
12111;DHT22;6119;52.372;8.990;2022-07-23T05:40:00;16.50;99.90
12111;DHT22;6119;52.372;8.990;2022-07-23T05:42:47;16.60;99.90
12111;DHT22;6119;52.372;8.990;2022-07-23T05:45:33;16.60;99.90
12111;DHT22;6119;52.372;8.990;2022-07-23T05:48:20;16.60;99.90
12111;DHT22;6119;52.372;8.990;2022-07-23T05:51:09;16.70;99.90
12111;DHT22;6119;52.372;8.990;2022-07-23T05:53:55;16.60;99.90
12111;DHT22;6119;52.372;8.990;2022-07-23T05:56:42;16.60;99.90
12111;DHT22;6119;52.372;8.990;2022-07-23T05:59:28;16.60;99.90
12111;DHT22;6119;52.372;8.990;2022-07-23T06:02:15;16.80;99.90
12111;DHT22;6119;52.372;8.990;2022-07-23T06:05:01;16.90;99.90
12111;DHT22;6119;52.372;8.990;2022-07-23T06:07:49;16.80;99.90
12111;DHT22;6119;52.372;8.990;2022-07-23T06:10:36;16.80;99.90
12111;DHT22;6119;52.372;8.990;2022-07-23T06:13:22;17.00;99.90
12111;DHT22;6119;52.372;8.990;2022-07-23T06:16:09;17.00;99.90
12111;DHT22;6119;52.372;8.990;2022-07-23T06:18:55;16.90;99.90
12111;DHT22;6119;52.372;8.990;2022-07-23T06:21:42;17.20;99.90
12111;DHT22;6119;52.372;8.990;2022-07-23T06:24:33;17.20;99.90
12111;DHT22;6119;52.372;8.990;2022-07-23T06:27:19;17.30;99.90
12111;DHT22;6119;52.372;8.990;2022-07-23T06:30:12;17.80;99.90
12111;DHT22;6119;52.372;8.990;2022-07-23T06:33:03;17.40;99.90
12111;DHT22;6119;52.372;8.990;2022-07-23T06:35:49;17.40;99.90
12111;DHT22;6119;52.372;8.990;2022-07-23T06:38:36;17.50;99.90
12111;DHT22;6119;52.372;8.990;2022-07-23T06:41:24;17.50;99.90
12111;DHT22;6119;52.372;8.990;2022-07-23T06:44:10;17.50;99.90
12111;DHT22;6119;52.372;8.990;2022-07-23T06:46:57;17.60;99.90
12111;DHT22;6119;52.372;8.990;2022-07-23T06:49:44;17.70;99.90
12111;DHT22;6119;52.372;8.990;2022-07-23T06:52:30;17.80;99.90
12111;DHT22;6119;52.372;8.990;2022-07-23T06:55:16;17.70;99.90
12111;DHT22;6119;52.372;8.990;2022-07-23T06:58:04;17.60;99.90
12111;DHT22;6119;52.372;8.990;2022-07-23T07:00:51;17.70;99.90
12111;DHT22;6119;52.372;8.990;2022-07-23T07:03:37;17.70;99.90
12111;DHT22;6119;52.372;8.990;2022-07-23T07:06:24;18.00;99.90
12111;DHT22;6119;52.372;8.990;2022-07-23T07:09:10;18.00;99.90
12111;DHT22;6119;52.372;8.990;2022-07-23T07:11:57;17.80;99.90
12111;DHT22;6119;52.372;8.990;2022-07-23T07:14:44;17.70;99.90
12111;DHT22;6119;52.372;8.990;2022-07-23T07:17:31;17.90;99.90
12111;DHT22;6119;52.372;8.990;2022-07-23T07:20:17;18.00;99.90
12111;DHT22;6119;52.372;8.990;2022-07-23T07:23:04;18.20;99.90
12111;DHT22;6119;52.372;8.990;2022-07-23T07:25:50;18.20;99.90
12111;DHT22;6119;52.372;8.990;2022-07-23T07:28:36;18.50;99.90
12111;DHT22;6119;52.372;8.990;2022-07-23T07:31:24;18.40;99.90
12111;DHT22;6119;52.372;8.990;2022-07-23T07:34:11;18.50;99.90
12111;DHT22;6119;52.372;8.990;2022-07-23T07:36:58;18.40;99.90
12111;DHT22;6119;52.372;8.990;2022-07-23T07:39:44;18.30;99.90
12111;DHT22;6119;52.372;8.990;2022-07-23T07:42:30;18.40;99.90
12111;DHT22;6119;52.372;8.990;2022-07-23T07:45:19;18.50;99.90
12111;DHT22;6119;52.372;8.990;2022-07-23T07:48:07;18.40;99.90
12111;DHT22;6119;52.372;8.990;2022-07-23T07:50:54;18.70;99.90
12111;DHT22;6119;52.372;8.990;2022-07-23T07:53:40;18.70;99.90
12111;DHT22;6119;52.372;8.990;2022-07-23T07:56:30;18.50;99.90
12111;DHT22;6119;52.372;8.990;2022-07-23T07:59:17;18.90;99.90
12111;DHT22;6119;52.372;8.990;2022-07-23T08:02:04;19.00;99.90
12111;DHT22;6119;52.372;8.990;2022-07-23T08:04:52;19.10;99.90
12111;DHT22;6119;52.372;8.990;2022-07-23T08:07:39;18.60;99.90
12111;DHT22;6119;52.372;8.990;2022-07-23T08:10:27;18.60;99.90
12111;DHT22;6119;52.372;8.990;2022-07-23T08:13:15;19.00;99.90
12111;DHT22;6119;52.372;8.990;2022-07-23T08:16:02;19.20;99.90
12111;DHT22;6119;52.372;8.990;2022-07-23T08:18:52;19.10;99.90
12111;DHT22;6119;52.372;8.990;2022-07-23T08:21:40;19.10;99.90
12111;DHT22;6119;52.372;8.990;2022-07-23T08:24:26;19.00;99.90
12111;DHT22;6119;52.372;8.990;2022-07-23T08:27:13;18.90;99.90
12111;DHT22;6119;52.372;8.990;2022-07-23T08:29:59;19.30;99.90
12111;DHT22;6119;52.372;8.990;2022-07-23T08:32:51;19.10;99.90
12111;DHT22;6119;52.372;8.990;2022-07-23T08:35:40;19.10;99.90
12111;DHT22;6119;52.372;8.990;2022-07-23T08:38:28;19.10;99.90
12111;DHT22;6119;52.372;8.990;2022-07-23T08:41:16;18.90;99.90
12111;DHT22;6119;52.372;8.990;2022-07-23T08:44:02;19.00;99.90
12111;DHT22;6119;52.372;8.990;2022-07-23T08:46:50;19.00;99.90
12111;DHT22;6119;52.372;8.990;2022-07-23T08:49:37;19.20;99.90
12111;DHT22;6119;52.372;8.990;2022-07-23T08:52:24;19.10;99.90
12111;DHT22;6119;52.372;8.990;2022-07-23T08:55:13;19.30;99.90
12111;DHT22;6119;52.372;8.990;2022-07-23T08:58:01;19.30;99.90
12111;DHT22;6119;52.372;8.990;2022-07-23T09:00:48;19.30;99.90
12111;DHT22;6119;52.372;8.990;2022-07-23T09:03:36;19.50;99.90
12111;DHT22;6119;52.372;8.990;2022-07-23T09:06:23;19.40;99.90
12111;DHT22;6119;52.372;8.990;2022-07-23T09:09:17;20.00;99.90
12111;DHT22;6119;52.372;8.990;2022-07-23T09:12:06;20.00;99.90
12111;DHT22;6119;52.372;8.990;2022-07-23T09:14:54;20.10;99.90
12111;DHT22;6119;52.372;8.990;2022-07-23T09:17:42;20.10;99.90
12111;DHT22;6119;52.372;8.990;2022-07-23T09:20:29;19.90;99.90
12111;DHT22;6119;52.372;8.990;2022-07-23T09:23:16;20.30;99.90
12111;DHT22;6119;52.372;8.990;2022-07-23T09:26:02;20.00;99.90
12111;DHT22;6119;52.372;8.990;2022-07-23T09:28:58;20.30;99.90
12111;DHT22;6119;52.372;8.990;2022-07-23T09:31:48;20.30;99.90
12111;DHT22;6119;52.372;8.990;2022-07-23T09:34:36;20.30;99.90
12111;DHT22;6119;52.372;8.990;2022-07-23T09:37:24;19.70;99.90
12111;DHT22;6119;52.372;8.990;2022-07-23T09:40:12;20.10;99.90
12111;DHT22;6119;52.372;8.990;2022-07-23T09:43:01;20.50;99.90
12111;DHT22;6119;52.372;8.990;2022-07-23T09:45:49;20.80;99.90
12111;DHT22;6119;52.372;8.990;2022-07-23T09:48:36;20.70;99.90
12111;DHT22;6119;52.372;8.990;2022-07-23T09:51:23;20.40;99.90
12111;DHT22;6119;52.372;8.990;2022-07-23T09:54:26;20.20;99.90
12111;DHT22;6119;52.372;8.990;2022-07-23T09:57:13;20.40;99.90
12111;DHT22;6119;52.372;8.990;2022-07-23T10:00:02;20.60;99.90
12111;DHT22;6119;52.372;8.990;2022-07-23T10:02:51;20.90;99.90
12111;DHT22;6119;52.372;8.990;2022-07-23T10:05:41;21.30;99.90
12111;DHT22;6119;52.372;8.990;2022-07-23T10:08:30;21.30;99.90
12111;DHT22;6119;52.372;8.990;2022-07-23T10:11:18;21.30;99.90
12111;DHT22;6119;52.372;8.990;2022-07-23T10:14:04;21.50;99.90
12111;DHT22;6119;52.372;8.990;2022-07-23T10:16:52;21.30;99.90
12111;DHT22;6119;52.372;8.990;2022-07-23T10:19:40;21.30;99.90
12111;DHT22;6119;52.372;8.990;2022-07-23T10:22:29;21.20;99.90
12111;DHT22;6119;52.372;8.990;2022-07-23T10:25:24;21.30;99.90
12111;DHT22;6119;52.372;8.990;2022-07-23T10:28:40;21.70;99.90
12111;DHT22;6119;52.372;8.990;2022-07-23T10:31:38;21.90;99.90
12111;DHT22;6119;52.372;8.990;2022-07-23T10:34:51;22.20;99.90
12111;DHT22;6119;52.372;8.990;2022-07-23T10:37:41;22.10;99.90
12111;DHT22;6119;52.372;8.990;2022-07-23T10:40:31;21.90;99.90
12111;DHT22;6119;52.372;8.990;2022-07-23T10:43:17;21.70;99.90
12111;DHT22;6119;52.372;8.990;2022-07-23T10:46:23;21.60;99.90
12111;DHT22;6119;52.372;8.990;2022-07-23T10:49:35;21.60;99.90
12111;DHT22;6119;52.372;8.990;2022-07-23T10:52:25;21.50;99.90
12111;DHT22;6119;52.372;8.990;2022-07-23T10:55:40;22.00;99.90
12111;DHT22;6119;52.372;8.990;2022-07-23T10:58:45;22.20;99.90
12111;DHT22;6119;52.372;8.990;2022-07-23T11:01:33;21.70;99.90
12111;DHT22;6119;52.372;8.990;2022-07-23T11:04:47;21.60;99.90
12111;DHT22;6119;52.372;8.990;2022-07-23T11:08:09;22.10;99.90
12111;DHT22;6119;52.372;8.990;2022-07-23T11:10:46;21.70;99.90
12111;DHT22;6119;52.372;8.990;2022-07-23T11:13:47;21.90;99.90
12111;DHT22;6119;52.372;8.990;2022-07-23T11:16:46;22.30;99.90
12111;DHT22;6119;52.372;8.990;2022-07-23T11:20:22;22.50;99.90
12111;DHT22;6119;52.372;8.990;2022-07-23T11:23:09;22.10;99.90
12111;DHT22;6119;52.372;8.990;2022-07-23T11:25:55;22.00;99.90
12111;DHT22;6119;52.372;8.990;2022-07-23T11:28:42;22.70;99.90
12111;DHT22;6119;52.372;8.990;2022-07-23T11:31:28;22.60;99.90
12111;DHT22;6119;52.372;8.990;2022-07-23T11:34:29;22.60;99.90
12111;DHT22;6119;52.372;8.990;2022-07-23T11:37:29;23.00;99.90
12111;DHT22;6119;52.372;8.990;2022-07-23T11:40:17;22.70;99.90
12111;DHT22;6119;52.372;8.990;2022-07-23T11:43:06;22.10;99.90
12111;DHT22;6119;52.372;8.990;2022-07-23T11:45:56;22.10;99.90
12111;DHT22;6119;52.372;8.990;2022-07-23T11:48:44;22.30;99.90
12111;DHT22;6119;52.372;8.990;2022-07-23T11:51:30;22.70;99.90
12111;DHT22;6119;52.372;8.990;2022-07-23T11:54:19;23.20;99.90
12111;DHT22;6119;52.372;8.990;2022-07-23T11:57:06;23.30;99.90
12111;DHT22;6119;52.372;8.990;2022-07-23T11:59:54;23.60;99.90
12111;DHT22;6119;52.372;8.990;2022-07-23T12:02:43;24.20;99.90
12111;DHT22;6119;52.372;8.990;2022-07-23T12:05:32;24.40;99.90
12111;DHT22;6119;52.372;8.990;2022-07-23T12:08:19;23.90;99.90
12111;DHT22;6119;52.372;8.990;2022-07-23T12:11:06;24.00;99.90
12111;DHT22;6119;52.372;8.990;2022-07-23T12:13:56;23.60;99.90
12111;DHT22;6119;52.372;8.990;2022-07-23T12:16:43;23.90;99.90
12111;DHT22;6119;52.372;8.990;2022-07-23T12:19:30;23.80;99.90
12111;DHT22;6119;52.372;8.990;2022-07-23T12:22:16;24.00;99.90
12111;DHT22;6119;52.372;8.990;2022-07-23T12:25:06;24.30;99.90
12111;DHT22;6119;52.372;8.990;2022-07-23T12:28:02;24.30;99.90
12111;DHT22;6119;52.372;8.990;2022-07-23T12:30:51;24.00;99.90
12111;DHT22;6119;52.372;8.990;2022-07-23T12:33:39;24.60;99.90
12111;DHT22;6119;52.372;8.990;2022-07-23T12:36:37;24.70;99.90
12111;DHT22;6119;52.372;8.990;2022-07-23T12:39:31;24.80;99.20
12111;DHT22;6119;52.372;8.990;2022-07-23T12:42:17;24.70;99.90
12111;DHT22;6119;52.372;8.990;2022-07-23T12:45:08;24.70;98.90
12111;DHT22;6119;52.372;8.990;2022-07-23T12:48:02;24.10;99.00
12111;DHT22;6119;52.372;8.990;2022-07-23T12:50:53;23.90;99.90
12111;DHT22;6119;52.372;8.990;2022-07-23T12:53:42;24.00;99.80
12111;DHT22;6119;52.372;8.990;2022-07-23T12:56:31;23.90;99.90
12111;DHT22;6119;52.372;8.990;2022-07-23T12:59:18;24.30;99.90
12111;DHT22;6119;52.372;8.990;2022-07-23T13:02:08;24.30;99.80
12111;DHT22;6119;52.372;8.990;2022-07-23T13:04:58;24.00;99.60
12111;DHT22;6119;52.372;8.990;2022-07-23T13:07:46;24.30;99.90
12111;DHT22;6119;52.372;8.990;2022-07-23T13:10:32;24.80;99.90
12111;DHT22;6119;52.372;8.990;2022-07-23T13:13:23;25.20;98.30
12111;DHT22;6119;52.372;8.990;2022-07-23T13:16:15;24.90;98.60
12111;DHT22;6119;52.372;8.990;2022-07-23T13:19:02;25.00;98.20
12111;DHT22;6119;52.372;8.990;2022-07-23T13:21:50;24.90;97.00
12111;DHT22;6119;52.372;8.990;2022-07-23T13:24:36;25.60;98.80
12111;DHT22;6119;52.372;8.990;2022-07-23T13:27:24;25.20;97.40
12111;DHT22;6119;52.372;8.990;2022-07-23T13:30:11;24.90;97.00
12111;DHT22;6119;52.372;8.990;2022-07-23T13:32:57;24.50;97.70
12111;DHT22;6119;52.372;8.990;2022-07-23T13:35:47;25.20;98.90
12111;DHT22;6119;52.372;8.990;2022-07-23T13:38:34;25.40;98.20
12111;DHT22;6119;52.372;8.990;2022-07-23T13:41:21;25.20;98.80
12111;DHT22;6119;52.372;8.990;2022-07-23T13:44:10;25.30;99.00
12111;DHT22;6119;52.372;8.990;2022-07-23T13:46:57;24.50;97.50
12111;DHT22;6119;52.372;8.990;2022-07-23T13:49:44;24.80;98.00
12111;DHT22;6119;52.372;8.990;2022-07-23T13:52:34;25.00;98.40
12111;DHT22;6119;52.372;8.990;2022-07-23T13:55:21;25.10;98.00
12111;DHT22;6119;52.372;8.990;2022-07-23T13:58:12;25.10;98.20
12111;DHT22;6119;52.372;8.990;2022-07-23T14:00:58;25.40;97.80
12111;DHT22;6119;52.372;8.990;2022-07-23T14:03:44;25.70;98.20
12111;DHT22;6119;52.372;8.990;2022-07-23T14:06:31;25.20;96.60
12111;DHT22;6119;52.372;8.990;2022-07-23T14:09:19;25.30;97.30
12111;DHT22;6119;52.372;8.990;2022-07-23T14:12:07;25.40;97.00
12111;DHT22;6119;52.372;8.990;2022-07-23T14:14:56;25.90;97.30
12111;DHT22;6119;52.372;8.990;2022-07-23T14:17:43;25.60;97.30
12111;DHT22;6119;52.372;8.990;2022-07-23T14:20:31;26.10;97.20
12111;DHT22;6119;52.372;8.990;2022-07-23T14:23:17;26.10;96.10
12111;DHT22;6119;52.372;8.990;2022-07-23T14:26:05;26.20;96.30
12111;DHT22;6119;52.372;8.990;2022-07-23T14:28:52;26.20;96.60
12111;DHT22;6119;52.372;8.990;2022-07-23T14:31:38;26.40;95.90
12111;DHT22;6119;52.372;8.990;2022-07-23T14:34:26;25.10;95.90
12111;DHT22;6119;52.372;8.990;2022-07-23T14:37:13;25.40;96.80
12111;DHT22;6119;52.372;8.990;2022-07-23T14:40:00;25.90;96.40
12111;DHT22;6119;52.372;8.990;2022-07-23T14:42:49;26.30;96.50
12111;DHT22;6119;52.372;8.990;2022-07-23T14:45:36;26.80;96.00
12111;DHT22;6119;52.372;8.990;2022-07-23T14:48:23;26.40;95.00
12111;DHT22;6119;52.372;8.990;2022-07-23T14:51:09;26.60;94.90
12111;DHT22;6119;52.372;8.990;2022-07-23T14:53:56;26.90;96.30
12111;DHT22;6119;52.372;8.990;2022-07-23T14:56:43;25.80;95.20
12111;DHT22;6119;52.372;8.990;2022-07-23T14:59:31;26.10;95.90
12111;DHT22;6119;52.372;8.990;2022-07-23T15:02:18;25.80;95.90
12111;DHT22;6119;52.372;8.990;2022-07-23T15:05:06;25.60;96.30
12111;DHT22;6119;52.372;8.990;2022-07-23T15:07:53;26.40;95.90
12111;DHT22;6119;52.372;8.990;2022-07-23T15:10:39;26.50;94.80
12111;DHT22;6119;52.372;8.990;2022-07-23T15:13:25;26.40;95.00
12111;DHT22;6119;52.372;8.990;2022-07-23T15:16:14;26.10;95.50
12111;DHT22;6119;52.372;8.990;2022-07-23T15:19:02;26.10;95.80
12111;DHT22;6119;52.372;8.990;2022-07-23T15:21:51;26.10;95.40
12111;DHT22;6119;52.372;8.990;2022-07-23T15:24:38;26.60;96.10
12111;DHT22;6119;52.372;8.990;2022-07-23T15:27:24;25.60;94.60
12111;DHT22;6119;52.372;8.990;2022-07-23T15:30:11;25.90;95.50
12111;DHT22;6119;52.372;8.990;2022-07-23T15:32:59;26.20;95.70
12111;DHT22;6119;52.372;8.990;2022-07-23T15:35:46;26.00;94.60
12111;DHT22;6119;52.372;8.990;2022-07-23T15:38:33;26.20;95.00
12111;DHT22;6119;52.372;8.990;2022-07-23T15:41:19;25.60;95.70
12111;DHT22;6119;52.372;8.990;2022-07-23T15:44:08;26.30;94.70
12111;DHT22;6119;52.372;8.990;2022-07-23T15:47:16;26.10;95.30
12111;DHT22;6119;52.372;8.990;2022-07-23T15:50:06;26.30;95.30
12111;DHT22;6119;52.372;8.990;2022-07-23T15:52:52;26.40;95.60
12111;DHT22;6119;52.372;8.990;2022-07-23T15:55:40;26.80;94.60
12111;DHT22;6119;52.372;8.990;2022-07-23T15:58:31;26.80;94.70
12111;DHT22;6119;52.372;8.990;2022-07-23T16:01:18;26.80;94.30
12111;DHT22;6119;52.372;8.990;2022-07-23T16:04:05;26.90;94.50
12111;DHT22;6119;52.372;8.990;2022-07-23T16:06:54;26.60;94.10
12111;DHT22;6119;52.372;8.990;2022-07-23T16:09:42;26.60;95.30
12111;DHT22;6119;52.372;8.990;2022-07-23T16:12:28;25.50;95.40
12111;DHT22;6119;52.372;8.990;2022-07-23T16:15:15;25.80;94.50
12111;DHT22;6119;52.372;8.990;2022-07-23T16:18:01;26.20;94.70
12111;DHT22;6119;52.372;8.990;2022-07-23T16:20:48;26.40;95.00
12111;DHT22;6119;52.372;8.990;2022-07-23T16:23:37;26.50;94.30
12111;DHT22;6119;52.372;8.990;2022-07-23T16:26:23;26.00;95.30
12111;DHT22;6119;52.372;8.990;2022-07-23T16:29:10;26.60;95.10
12111;DHT22;6119;52.372;8.990;2022-07-23T16:32:04;26.60;94.80
12111;DHT22;6119;52.372;8.990;2022-07-23T16:34:51;26.50;94.10
12111;DHT22;6119;52.372;8.990;2022-07-23T16:37:38;26.90;93.80
12111;DHT22;6119;52.372;8.990;2022-07-23T16:40:27;26.80;94.50
12111;DHT22;6119;52.372;8.990;2022-07-23T16:43:14;26.70;93.90
12111;DHT22;6119;52.372;8.990;2022-07-23T16:46:00;26.00;94.20
12111;DHT22;6119;52.372;8.990;2022-07-23T16:48:47;26.70;93.70
12111;DHT22;6119;52.372;8.990;2022-07-23T16:51:35;26.50;94.40
12111;DHT22;6119;52.372;8.990;2022-07-23T16:54:22;26.90;94.00
12111;DHT22;6119;52.372;8.990;2022-07-23T16:57:10;26.90;95.00
12111;DHT22;6119;52.372;8.990;2022-07-23T16:59:57;25.70;94.60
12111;DHT22;6119;52.372;8.990;2022-07-23T17:02:43;26.60;93.40
12111;DHT22;6119;52.372;8.990;2022-07-23T17:05:30;26.60;94.60
12111;DHT22;6119;52.372;8.990;2022-07-23T17:08:17;26.30;94.60
12111;DHT22;6119;52.372;8.990;2022-07-23T17:11:03;25.90;94.50
12111;DHT22;6119;52.372;8.990;2022-07-23T17:13:51;26.60;94.00
12111;DHT22;6119;52.372;8.990;2022-07-23T17:16:38;26.00;94.10
12111;DHT22;6119;52.372;8.990;2022-07-23T17:19:25;26.40;94.20
12111;DHT22;6119;52.372;8.990;2022-07-23T17:22:11;26.50;93.20
12111;DHT22;6119;52.372;8.990;2022-07-23T17:24:58;25.20;93.60
12111;DHT22;6119;52.372;8.990;2022-07-23T17:27:47;26.40;94.30
12111;DHT22;6119;52.372;8.990;2022-07-23T17:30:35;26.90;93.90
12111;DHT22;6119;52.372;8.990;2022-07-23T17:33:21;26.40;94.10
12111;DHT22;6119;52.372;8.990;2022-07-23T17:36:09;26.50;93.80
12111;DHT22;6119;52.372;8.990;2022-07-23T17:38:55;26.50;94.40
12111;DHT22;6119;52.372;8.990;2022-07-23T17:41:50;26.80;94.40
12111;DHT22;6119;52.372;8.990;2022-07-23T17:44:36;26.60;93.40
12111;DHT22;6119;52.372;8.990;2022-07-23T17:47:24;26.30;94.90
12111;DHT22;6119;52.372;8.990;2022-07-23T17:50:11;26.50;94.80
12111;DHT22;6119;52.372;8.990;2022-07-23T17:52:57;26.60;94.20
12111;DHT22;6119;52.372;8.990;2022-07-23T17:55:44;26.40;93.30
12111;DHT22;6119;52.372;8.990;2022-07-23T17:58:31;26.50;94.20